Time;durP1;ratioP1;P1;durP2;ratioP2;P2;SDS_P1;SDS_P2;PMS_P1;PMS_P2;Temp;Humidity;BMP_temperature;BMP_pressure;BME280_temperature;BME280_humidity;BME280_pressure;Samples;Min_cycle;Max_cycle;Signal;HPM_P1;HPM_P2
2021/05/11 00:01:35;;;;;;;7.40;3.08;;;;;;;6.78;82.80;93420.11;1811589;79;21080;-76
2021/05/11 00:04:03;;;;;;;3.35;2.80;;;;;;;6.73;82.58;93419.11;1811127;79;21363;-76
2021/05/11 00:06:30;;;;;;;9.98;6.72;;;;;;;6.66;82.75;93423.66;1812169;79;21740;-81
2021/05/11 00:08:57;;;;;;;14.33;8.93;;;;;;;6.60;82.82;93426.48;1811863;79;21198;-80
2021/05/11 00:11:24;;;;;;;15.80;8.13;;;;;;;6.51;82.76;93424.07;1811623;79;21187;-79
2021/05/11 00:13:53;;;;;;;10.90;6.60;;;;;;;6.44;82.65;93428.04;1808061;78;21191;-75
2021/05/11 00:16:21;;;;;;;9.83;4.10;;;;;;;6.38;82.67;93426.22;1807217;79;22284;-74
2021/05/11 00:18:50;;;;;;;11.35;3.60;;;;;;;6.38;82.87;93426.22;1810692;79;21187;-78
2021/05/11 00:21:17;;;;;;;9.88;3.50;;;;;;;6.36;83.33;93416.37;1811434;79;21446;-80
2021/05/11 00:23:45;;;;;;;6.22;3.95;;;;;;;6.35;83.69;93419.42;1805956;78;21135;-78
2021/05/11 00:26:14;;;;;;;6.58;3.12;;;;;;;6.32;83.43;93414.20;1809607;79;21045;-78
2021/05/11 00:28:41;;;;;;;8.73;3.40;;;;;;;6.28;83.27;93421.46;1808761;78;21483;-76
2021/05/11 00:31:09;;;;;;;6.92;3.22;;;;;;;6.25;83.43;93422.22;1805510;79;21661;-77
2021/05/11 00:33:36;;;;;;;5.62;3.15;;;;;;;6.20;83.55;93423.87;1805635;79;21610;-78
2021/05/11 00:36:05;;;;;;;7.65;3.10;;;;;;;6.19;83.90;93423.09;1805379;79;21266;-75
2021/05/11 00:38:32;;;;;;;9.90;2.65;;;;;;;6.18;83.95;93417.50;1810533;79;21167;-76
2021/05/11 00:41:01;;;;;;;4.10;2.77;;;;;;;6.17;83.92;93421.36;1811904;78;22265;-79
2021/05/11 00:43:28;;;;;;;9.85;5.55;;;;;;;6.15;83.94;93425.55;1811674;79;21174;-78
2021/05/11 00:45:57;;;;;;;17.35;8.00;;;;;;;6.05;84.22;93416.94;1810582;79;21154;-74
2021/05/11 00:48:24;;;;;;;15.50;8.50;;;;;;;6.01;84.41;93420.73;1810799;79;21174;-78
2021/05/11 00:50:52;;;;;;;16.50;8.30;;;;;;;6.01;84.36;93424.79;1810972;79;21474;-74
2021/05/11 00:53:20;;;;;;;11.93;7.35;;;;;;;6.01;84.10;93424.22;1807279;79;22319;-79
2021/05/11 00:55:48;;;;;;;11.60;6.97;;;;;;;6.00;83.91;93422.67;1807349;79;21175;-81
2021/05/11 00:58:15;;;;;;;18.10;8.68;;;;;;;5.96;84.15;93415.67;1811114;79;21286;-78
2021/05/11 01:00:42;;;;;;;11.93;5.08;;;;;;;5.94;84.35;93418.75;1810695;79;21167;-76
2021/05/11 01:03:10;;;;;;;9.90;4.33;;;;;;;5.96;84.49;93417.80;1811771;79;21163;-77
2021/05/11 01:05:38;;;;;;;11.22;3.27;;;;;;;5.97;84.53;93423.97;1812034;79;21582;-79
2021/05/11 01:08:06;;;;;;;12.05;4.10;;;;;;;5.93;84.71;93416.40;1808760;79;21088;-77
2021/05/11 01:10:36;;;;;;;9.35;4.75;;;;;;;5.90;84.78;93417.09;1807539;79;21159;-78
2021/05/11 01:13:05;;;;;;;8.13;4.00;;;;;;;5.78;84.91;93414.81;1811090;78;21155;-77
2021/05/11 01:15:38;;;;;;;14.98;5.28;;;;;;;5.69;85.36;93417.02;1811004;79;21171;-77
2021/05/11 01:18:09;;;;;;;7.00;3.72;;;;;;;5.65;85.73;93420.23;1806039;79;21383;-76
2021/05/11 01:20:40;;;;;;;5.25;3.70;;;;;;;5.61;86.00;93411.31;1809674;79;21164;-76
2021/05/11 01:25:57;;;;;;;8.63;2.77;;;;;;;5.55;85.60;93408.13;1812042;79;21163;-78
2021/05/11 01:28:30;;;;;;;5.85;2.70;;;;;;;5.48;85.49;93409.95;1811867;79;21350;-79
2021/05/11 01:47:29;;;;;;;3.70;2.87;;;;;;;5.49;86.74;93400.17;1811952;79;21183;-80
2021/05/11 02:22:44;;;;;;;11.03;6.25;;;;;;;4.74;85.51;93404.34;1806680;79;21465;-80
2021/05/11 02:25:13;;;;;;;7.15;5.25;;;;;;;4.70;85.86;93410.78;1811986;79;21807;-78
2021/05/11 02:27:41;;;;;;;13.25;6.03;;;;;;;4.68;86.24;93407.69;1812209;79;21285;-79
2021/05/11 02:30:11;;;;;;;12.35;5.87;;;;;;;4.69;86.46;93408.66;1811443;79;21167;-79
2021/05/11 02:32:40;;;;;;;12.23;6.42;;;;;;;4.68;86.04;93404.99;1812013;79;21182;-79
2021/05/11 02:35:09;;;;;;;9.73;5.47;;;;;;;4.67;85.92;93410.17;1812090;79;21693;-80
2021/05/11 02:37:37;;;;;;;9.00;4.70;;;;;;;4.63;85.98;93402.80;1811420;78;21352;-80
2021/05/11 02:40:07;;;;;;;7.67;4.55;;;;;;;4.67;86.06;93402.09;1805502;79;21155;-76
2021/05/11 02:42:36;;;;;;;14.00;6.17;;;;;;;4.67;86.21;93408.83;1810761;79;21147;-77
2021/05/11 02:45:14;;;;;;;9.20;6.22;;;;;;;4.65;86.29;93399.74;1812340;79;21614;-76
2021/05/11 02:47:48;;;;;;;12.20;7.28;;;;;;;4.62;86.25;93403.14;1808575;79;21155;-80
2021/05/11 02:50:29;;;;;;;9.03;4.58;;;;;;;4.54;85.73;93401.47;1808390;79;22258;-79
2021/05/11 02:52:57;;;;;;;10.70;7.37;;;;;;;4.53;86.09;93397.22;1811799;79;21183;-77
2021/05/11 02:55:25;;;;;;;9.45;6.72;;;;;;;4.52;86.21;93401.06;1812173;79;21745;-79
2021/05/11 02:57:54;;;;;;;8.08;5.75;;;;;;;4.49;86.07;93399.84;1812359;79;21143;-76
2021/05/11 03:00:23;;;;;;;7.75;4.17;;;;;;;4.47;86.14;93394.59;1807212;78;21542;-75
2021/05/11 03:02:51;;;;;;;9.43;3.72;;;;;;;4.48;86.45;93397.52;1809176;79;22039;-76
2021/05/11 03:05:18;;;;;;;4.70;2.58;;;;;;;4.53;86.54;93399.91;1812008;79;21167;-78
2021/05/11 03:07:46;;;;;;;5.37;3.08;;;;;;;4.55;86.56;93390.89;1811007;78;21179;-77
2021/05/11 03:10:15;;;;;;;3.87;2.30;;;;;;;4.51;86.46;93388.70;1805454;79;21677;-75
2021/05/11 03:12:43;;;;;;;3.75;2.60;;;;;;;4.49;86.51;93385.03;1811025;79;21155;-77
2021/05/11 03:15:12;;;;;;;4.55;3.00;;;;;;;4.48;86.67;93382.14;1811786;79;21374;-80
2021/05/11 03:17:40;;;;;;;4.75;2.90;;;;;;;4.43;86.72;93380.30;1811996;79;21131;-78
2021/05/11 03:20:09;;;;;;;7.35;3.65;;;;;;;4.43;87.48;93389.72;1810784;78;21211;-80
2021/05/11 03:22:39;;;;;;;3.08;2.58;;;;;;;4.38;87.84;93392.91;1812136;79;21096;-75
2021/05/11 03:25:07;;;;;;;3.87;2.55;;;;;;;4.41;87.97;93388.73;1811142;79;21164;-78
2021/05/11 03:27:34;;;;;;;5.72;4.17;;;;;;;4.45;88.11;93394.97;1806635;78;21726;-76
2021/05/11 03:30:05;;;;;;;15.95;9.73;;;;;;;4.47;87.55;93394.03;1805460;79;21131;-81
2021/05/11 03:32:33;;;;;;;21.75;9.75;;;;;;;4.42;87.01;93394.90;1807102;79;21191;-77
2021/05/11 03:35:00;;;;;;;15.38;9.98;;;;;;;4.35;86.74;93396.88;1810806;78;21585;-78
2021/05/11 03:37:28;;;;;;;15.93;10.13;;;;;;;4.32;86.64;93396.24;1806187;79;21171;-78
2021/05/11 03:39:55;;;;;;;16.05;10.82;;;;;;;4.32;86.64;93395.67;1811697;79;22154;-77
2021/05/11 03:42:30;;;;;;;10.95;7.05;;;;;;;4.32;86.64;93395.67;1811595;79;21163;-79
2021/05/11 03:44:58;;;;;;;8.50;6.92;;;;;;;4.39;86.80;93400.42;1811676;79;21143;-77
2021/05/11 03:47:37;;;;;;;11.10;7.80;;;;;;;4.44;86.49;93390.72;1888917;76;22697;-77
2021/05/11 03:50:07;;;;;;;12.57;7.20;;;;;;;4.43;86.27;93391.06;1841732;77;23621;-78
2021/05/11 03:52:52;;;;;;;10.15;7.42;;;;;;;4.35;86.09;93400.34;1778802;78;21211;-81
2021/05/11 03:55:27;;;;;;;9.53;7.30;;;;;;;4.38;86.20;93393.48;1815554;79;23008;-79
2021/05/11 03:58:01;;;;;;;16.93;8.67;;;;;;;4.53;86.76;93390.48;1815542;79;23934;-77
2021/05/11 04:00:35;;;;;;;9.37;6.87;;;;;;;5.09;87.66;93397.42;1815981;79;25184;-80
2021/05/11 04:03:08;;;;;;;15.33;8.00;;;;;;;5.95;87.55;93387.13;1840345;77;28801;-79
2021/05/11 04:05:43;;;;;;;11.30;7.97;;;;;;;6.71;83.77;93381.43;1841155;77;29098;-78
2021/05/11 04:08:33;;;;;;;9.50;7.72;;;;;;;7.29;80.93;93380.19;1808901;79;28088;-79
2021/05/11 04:10:58;;;;;;;13.53;8.53;;;;;;;7.77;78.69;93378.78;1795046;77;27826;-75
2021/05/11 04:18:55;;;;;;;8.80;6.10;;;;;;;9.46;71.41;93375.41;1841905;77;28605;-75
2021/05/11 04:21:29;;;;;;;8.95;4.92;;;;;;;9.95;70.36;93378.44;1810747;79;28291;-73
2021/05/11 04:24:04;;;;;;;26.00;15.78;;;;;;;10.49;68.32;93379.65;1815378;79;28192;-72
2021/05/11 04:26:38;;;;;;;17.20;13.53;;;;;;;10.90;66.30;93378.47;1815938;78;28490;-78
2021/05/11 04:29:23;;;;;;;;;;;;;;;11.21;64.97;93372.66;1818415;79;21140;-81
2021/05/11 04:31:57;;;;;;;8.58;4.78;;;;;;;11.74;63.57;93370.08;1846391;76;22702;-79
2021/05/11 04:34:31;;;;;;;23.05;18.30;;;;;;;12.11;62.48;93369.36;1842018;77;22678;-76
2021/05/11 04:37:06;;;;;;;10.40;6.42;;;;;;;12.56;60.54;93372.53;1847040;76;22700;-79
2021/05/11 04:39:43;;;;;;;6.17;3.70;;;;;;;12.98;59.74;93366.36;1810091;79;22641;-78
2021/05/11 04:42:24;;;;;;;3.08;2.75;;;;;;;13.29;58.79;93366.51;1840189;77;22688;-75
2021/05/11 04:45:06;;;;;;;3.70;1.95;;;;;;;13.55;57.85;93362.20;1810803;79;22683;-80
2021/05/11 04:47:46;;;;;;;5.33;2.80;;;;;;;13.54;57.51;93368.06;1871354;75;28172;-75
2021/05/11 04:50:23;;;;;;;4.17;2.70;;;;;;;13.54;57.13;93364.77;1888706;76;22779;-79
2021/05/11 04:52:57;;;;;;;6.45;3.40;;;;;;;13.45;57.59;93363.73;1831064;76;27925;-75
2021/05/11 04:55:32;;;;;;;7.33;6.33;;;;;;;13.63;57.87;93369.69;1852383;77;22741;-76
2021/05/11 04:58:06;;;;;;;5.37;3.60;;;;;;;13.85;57.00;93362.68;1841476;77;22584;-77
2021/05/11 05:00:40;;;;;;;17.52;8.78;;;;;;;13.91;57.12;93364.33;1841451;77;22632;-76
2021/05/11 05:03:16;;;;;;;17.52;11.53;;;;;;;14.08;57.28;93358.38;1816493;79;22687;-76
2021/05/11 05:05:50;;;;;;;21.42;14.40;;;;;;;14.35;56.46;93360.99;1841582;77;22612;-78
2021/05/11 05:08:24;;;;;;;11.83;8.73;;;;;;;14.53;55.54;93347.77;1840999;77;23075;-75
2021/05/11 05:10:58;;;;;;;17.15;10.18;;;;;;;14.55;55.27;93344.60;1841924;77;22712;-77
2021/05/11 05:13:59;;;;;;;8.93;7.42;;;;;;;14.73;55.02;93345.61;1842544;77;22730;-77
2021/05/11 05:16:33;;;;;;;8.65;5.85;;;;;;;15.06;54.91;93340.99;1887721;75;22708;-75
2021/05/11 05:19:07;;;;;;;9.85;6.45;;;;;;;15.58;53.50;93341.55;1815867;78;22698;-75
2021/05/11 05:21:41;;;;;;;9.43;6.12;;;;;;;15.95;51.42;93343.62;1816091;79;22648;-77
2021/05/11 05:24:21;;;;;;;10.75;6.22;;;;;;;16.04;51.60;93335.53;1816028;78;22778;-77
2021/05/11 05:26:55;;;;;;;8.58;5.92;;;;;;;15.94;51.35;93335.97;1815756;79;23292;-74
2021/05/11 05:29:30;;;;;;;9.10;5.92;;;;;;;15.67;51.68;93333.52;1815240;78;22754;-76
2021/05/11 05:32:05;;;;;;;7.40;5.33;;;;;;;15.45;52.72;93335.97;1809284;79;22667;-77
2021/05/11 05:34:40;;;;;;;11.03;5.78;;;;;;;15.48;53.52;93335.72;1815753;78;22704;-80
2021/05/11 05:37:15;;;;;;;8.43;6.35;;;;;;;15.79;53.92;93329.30;1841397;77;22615;-78
2021/05/11 05:39:52;;;;;;;9.18;6.20;;;;;;;16.23;52.92;93327.77;1851918;77;22668;-79
2021/05/11 05:42:25;;;;;;;4.12;3.72;;;;;;;16.61;52.46;93327.11;1815404;79;22797;-79
2021/05/11 05:44:59;;;;;;;6.35;3.20;;;;;;;17.05;50.38;93328.05;1814454;79;22641;-78
2021/05/11 05:48:04;;;;;;;9.48;4.17;;;;;;;17.49;48.63;93324.92;1854398;77;22687;-80
2021/05/11 05:50:38;;;;;;;11.90;8.08;;;;;;;17.81;47.09;93325.89;1883267;76;22846;-76
2021/05/11 05:53:14;;;;;;;6.87;3.70;;;;;;;18.00;46.42;93314.45;1814125;79;22856;-76
2021/05/11 05:55:50;;;;;;;5.12;3.05;;;;;;;18.27;46.02;93314.67;1850815;76;22680;-80
2021/05/11 05:58:24;;;;;;;8.30;4.25;;;;;;;18.63;45.08;93315.56;1851023;77;22596;-78
2021/05/11 06:01:27;;;;;;;6.10;3.70;;;;;;;19.12;44.59;93314.95;1897859;74;27659;-78
2021/05/11 06:04:19;;;;;;;7.42;3.60;;;;;;;19.89;42.37;93305.41;1795138;78;22895;-75
2021/05/11 06:06:53;;;;;;;11.10;7.20;;;;;;;20.18;41.34;93304.22;1794380;77;30236;-79
2021/05/11 06:09:27;;;;;;;6.33;4.78;;;;;;;20.54;40.28;93306.25;1883299;76;23168;-77
2021/05/11 06:12:34;;;;;;;8.58;6.35;;;;;;;20.82;40.30;93304.83;1886080;75;22740;-78
2021/05/11 06:17:47;;;;;;;6.87;3.85;;;;;;;21.30;38.52;93296.09;1815109;78;22806;-78
2021/05/11 06:20:27;;;;;;;6.92;3.30;;;;;;;21.46;37.91;93293.59;1844217;76;22634;-80
2021/05/11 06:23:01;;;;;;;4.85;3.42;;;;;;;21.53;37.37;93286.33;1846128;76;23131;-81
2021/05/11 06:25:54;;;;;;;6.03;3.25;;;;;;;21.69;37.32;93294.09;1869932;75;22634;-79
2021/05/11 06:28:28;;;;;;;4.05;3.02;;;;;;;21.74;37.06;93289.29;1888208;76;22976;-76
2021/05/11 06:31:03;;;;;;;4.00;3.37;;;;;;;21.73;37.53;93287.77;1886957;75;22700;-80
2021/05/11 06:44:08;;;;;;;5.05;2.90;;;;;;;22.46;36.36;93274.83;1731292;82;28261;-78
2021/05/11 06:47:09;;;;;;;3.00;2.62;;;;;;;22.86;35.79;93279.05;1885987;76;22671;-77
2021/05/11 06:54:55;;;;;;;4.80;2.70;;;;;;;23.30;35.62;93278.30;1797408;79;27953;-79
2021/05/11 06:57:31;;;;;;;3.62;2.33;;;;;;;23.64;34.93;93274.02;1882520;76;22573;-78
2021/05/11 07:00:07;;;;;;;3.27;2.60;;;;;;;23.82;35.09;93271.66;1813181;79;22880;-78
2021/05/11 07:02:41;;;;;;;3.55;2.37;;;;;;;23.92;33.91;93268.91;1839585;77;22692;-78
2021/05/11 07:05:23;;;;;;;7.33;2.72;;;;;;;23.98;33.01;93272.50;1887143;76;22651;-80
2021/05/11 07:08:11;;;;;;;2.60;2.30;;;;;;;24.07;33.45;93269.44;1840680;77;22636;-77
2021/05/11 07:10:46;;;;;;;7.15;2.67;;;;;;;24.23;33.38;93267.52;1814789;78;22683;-79
2021/05/11 07:13:31;;;;;;;6.12;2.65;;;;;;;24.27;33.65;93274.25;1758358;80;21246;-77
2021/05/11 07:16:05;;;;;;;10.43;8.48;;;;;;;24.28;33.52;93274.38;1840101;77;22629;-74
2021/05/11 07:18:40;;;;;;;5.47;4.55;;;;;;;24.31;33.22;93276.19;1813171;79;22768;-81
2021/05/11 07:21:14;;;;;;;3.45;2.37;;;;;;;24.21;32.58;93261.67;1813657;79;22887;-77
2021/05/11 07:24:00;;;;;;;3.22;2.30;;;;;;;24.07;32.96;93259.12;1885680;76;22945;-79
2021/05/11 07:26:37;;;;;;;15.45;3.00;;;;;;;23.95;33.69;93258.81;1839965;77;22843;-77
2021/05/11 07:31:46;;;;;;;6.13;3.80;;;;;;;23.78;33.99;93250.91;1824300;77;38152;-81
2021/05/11 07:34:20;;;;;;;7.42;4.22;;;;;;;23.88;34.02;93243.95;1808452;79;22555;-79
2021/05/11 07:36:56;;;;;;;10.03;3.60;;;;;;;23.97;34.33;93245.98;1828719;76;27956;-81
2021/05/11 07:39:30;;;;;;;3.12;2.42;;;;;;;24.26;33.55;93239.37;1839744;77;22758;-77
2021/05/11 07:42:24;;;;;;;8.20;2.50;;;;;;;24.42;33.32;93234.05;1850878;77;22885;-81
2021/05/11 07:45:00;;;;;;;4.15;2.70;;;;;;;24.36;33.22;93233.81;1815415;79;22782;-80
2021/05/11 08:02:04;;;;;;;6.70;3.83;;;;;;;23.90;32.87;93218.63;1887981;75;22620;-77
2021/05/11 08:16:00;;;;;;;2.25;2.05;;;;;;;24.65;32.20;93198.89;1839794;77;22608;-78
2021/05/11 08:18:45;;;;;;;5.50;2.40;;;;;;;24.88;31.59;93200.48;1815052;78;22578;-78
2021/05/11 08:31:47;;;;;;;1.85;1.75;;;;;;;24.96;29.70;93185.63;1886150;76;22665;-80
2021/05/11 08:34:21;;;;;;;5.15;1.47;;;;;;;24.93;29.78;93186.61;1852685;77;22674;-80
2021/05/11 08:36:57;;;;;;;3.20;1.83;;;;;;;24.99;30.75;93181.74;1871103;75;27769;-79
2021/05/11 08:39:37;;;;;;;2.58;1.50;;;;;;;25.22;29.88;93186.23;1844036;76;22618;-80
2021/05/11 08:42:13;;;;;;;4.60;1.77;;;;;;;25.27;29.90;93186.14;1883107;76;22707;-77
2021/05/11 08:45:10;;;;;;;2.65;1.80;;;;;;;25.28;29.26;93185.66;1797063;78;22793;-78
2021/05/11 08:47:50;;;;;;;1.52;1.42;;;;;;;25.31;30.09;93176.33;1880694;76;21967;-77
2021/05/11 08:53:17;;;;;;;3.05;2.00;;;;;;;25.05;28.18;93179.14;1814407;78;23332;-78
2021/05/11 09:23:47;;;;;;;2.98;2.02;;;;;;;22.54;31.89;93174.85;1844262;76;22642;-78
2021/05/11 10:36:58;;;;;;;3.90;3.40;;;;;;;22.19;33.14;93162.28;1887839;76;22539;-81
2021/05/11 10:51:23;;;;;;;6.90;2.75;;;;;;;21.99;32.19;93150.42;1797970;76;21037;-82
2021/05/11 10:54:02;;;;;;;4.10;2.10;;;;;;;21.96;32.65;93154.13;1886258;75;22708;-78
2021/05/11 10:56:46;;;;;;;3.95;2.37;;;;;;;21.88;32.96;93140.52;1841219;77;22706;-80
2021/05/11 11:02:03;;;;;;;5.55;3.00;;;;;;;21.89;32.22;93135.74;1814946;79;23363;-77
2021/05/11 11:04:46;;;;;;;56.05;5.55;;;;;;;21.92;33.00;93138.33;1845600;76;22697;-77
2021/05/11 11:07:34;;;;;;;20.17;4.17;;;;;;;21.95;33.75;93143.55;1809224;79;22665;-81
2021/05/11 11:10:15;;;;;;;2.60;2.30;;;;;;;21.99;32.52;93144.88;1844844;76;22614;-80
2021/05/11 11:12:55;;;;;;;4.45;2.00;;;;;;;22.07;33.44;93136.34;1843630;76;23281;-82
2021/05/11 11:15:37;;;;;;;4.97;2.10;;;;;;;22.22;32.36;93142.55;1886695;76;22826;-82
2021/05/11 11:27:47;;;;;;;3.20;2.37;;;;;;;21.97;32.32;93148.00;1884439;74;22765;-79
2021/05/11 11:30:23;;;;;;;3.00;2.10;;;;;;;21.96;33.27;93149.22;1840691;77;22619;-79
2021/05/11 11:33:06;;;;;;;4.95;1.82;;;;;;;21.89;32.36;93137.12;1815167;79;22695;-78
2021/05/11 11:35:51;;;;;;;2.70;2.05;;;;;;;21.82;32.41;93144.58;1759542;80;21228;-79
2021/05/11 11:38:27;;;;;;;7.95;2.20;;;;;;;21.81;32.46;93135.34;1888248;76;22598;-78
2021/05/11 11:41:01;;;;;;;3.65;2.33;;;;;;;21.80;33.25;93141.51;1845817;76;22666;-80
2021/05/11 11:43:35;;;;;;;4.70;2.10;;;;;;;21.82;31.96;93133.51;1888373;75;22638;-82
2021/05/11 11:46:15;;;;;;;6.47;2.22;;;;;;;21.79;32.32;93116.46;1851865;75;22790;-83
2021/05/11 11:48:59;;;;;;;4.65;2.47;;;;;;;21.84;32.27;93120.56;1872400;75;27849;-77
2021/05/11 11:51:35;;;;;;;6.03;2.27;;;;;;;21.95;31.81;93133.86;1841142;77;22612;-83
2021/05/11 11:54:21;;;;;;;8.53;2.50;;;;;;;21.94;32.45;93130.33;1815928;78;22766;-80
2021/05/11 11:59:56;;;;;;;4.97;2.30;;;;;;;21.96;32.67;93117.39;1824742;78;21134;-80
2021/05/11 12:02:35;;;;;;;5.17;2.58;;;;;;;22.06;32.01;93122.98;1809383;79;22749;-82
2021/05/11 12:05:16;;;;;;;5.30;2.00;;;;;;;22.06;32.66;93116.83;1799669;78;28548;-76
2021/05/11 12:08:08;;;;;;;3.33;2.00;;;;;;;22.18;32.30;93122.59;1850491;77;22619;-83
2021/05/11 12:10:55;;;;;;;2.47;1.95;;;;;;;22.20;31.41;93113.20;1762115;80;21188;-83
2021/05/11 12:13:32;;;;;;;2.42;2.22;;;;;;;22.11;31.60;93118.16;1851996;77;22674;-80
2021/05/11 12:16:22;;;;;;;2.42;2.02;;;;;;;22.05;31.48;93120.84;1880735;76;22634;-79
2021/05/11 12:19:18;;;;;;;3.20;2.75;;;;;;;21.98;31.70;93120.45;1756923;81;21182;-78
2021/05/11 12:24:44;;;;;;;4.65;2.42;;;;;;;21.95;31.42;93093.72;1850661;77;22687;-82
2021/05/11 12:27:24;;;;;;;6.95;2.47;;;;;;;21.87;31.40;93114.09;1839001;77;22628;-79
2021/05/11 12:30:11;;;;;;;12.10;2.87;;;;;;;21.79;31.10;93110.17;1850207;77;23075;-79
2021/05/11 12:32:45;;;;;;;4.08;2.45;;;;;;;21.75;31.56;93097.90;1813696;79;22683;-80
2021/05/11 12:35:33;;;;;;;6.85;3.02;;;;;;;21.80;31.65;93097.85;1815159;79;22770;-83
2021/05/11 12:38:24;;;;;;;5.85;2.83;;;;;;;21.82;30.70;93096.77;1824913;77;27716;-80
2021/05/11 12:43:48;;;;;;;11.85;3.80;;;;;;;21.85;30.95;93104.10;1840052;77;22644;-77
2021/05/11 12:46:42;;;;;;;8.93;2.92;;;;;;;21.87;31.25;93092.57;1845565;77;23184;-78
2021/05/11 12:49:18;;;;;;;4.25;2.12;;;;;;;21.88;31.18;93092.70;1814100;79;22695;-78
2021/05/11 12:51:54;;;;;;;5.12;2.20;;;;;;;21.91;32.21;93085.60;1809807;79;22587;-80
2021/05/11 12:54:38;;;;;;;4.95;2.90;;;;;;;21.98;31.92;93079.69;1852535;76;23118;-82
2021/05/11 13:00:13;;;;;;;3.70;1.90;;;;;;;22.09;30.76;93076.36;1814696;79;22670;-80
2021/05/11 13:19:42;;;;;;;2.42;1.77;;;;;;;21.99;30.71;93062.46;1872688;76;22703;-78
2021/05/11 13:20:07;;;;;;;3.35;1.92;;;;;;;22.00;30.11;93057.06;1883562;76;22646;-78
2021/05/11 13:22:40;;;;;;;4.70;2.27;;;;;;;21.98;30.43;93067.23;1809751;77;22457;-77
2021/05/11 13:28:08;;;;;;;3.72;2.33;;;;;;;21.95;30.91;93050.19;1839345;77;22636;-79
2021/05/11 13:30:50;;;;;;;2.85;2.02;;;;;;;22.04;30.99;93057.63;1808447;79;23168;-77
2021/05/11 13:33:42;;;;;;;4.20;2.62;;;;;;;22.02;30.65;93060.89;1775402;80;21202;-78
2021/05/11 13:36:09;;;;;;;4.70;2.22;;;;;;;22.12;30.92;93052.50;1840118;77;22639;-81
2021/05/11 13:38:43;;;;;;;9.35;2.45;;;;;;;22.15;29.61;93045.39;1814550;79;22864;-82
2021/05/11 13:41:17;;;;;;;3.58;2.30;;;;;;;22.12;30.82;93037.27;1887420;76;22752;-81
2021/05/11 13:43:53;;;;;;;6.70;2.02;;;;;;;22.14;30.68;93039.72;1839876;77;22746;-78
2021/05/11 13:56:59;;;;;;;5.20;2.50;;;;;;;22.20;29.77;93035.67;1754150;80;29362;-77
2021/05/11 14:05:20;;;;;;;6.17;1.85;;;;;;;22.13;29.27;93036.02;1813921;78;22707;-82
2021/05/11 14:07:54;;;;;;;3.10;1.77;;;;;;;22.10;29.48;93023.89;1843879;76;22654;-77
2021/05/11 14:10:28;;;;;;;5.42;2.20;;;;;;;22.11;30.49;93020.50;1807500;79;22694;-81
2021/05/11 14:13:10;;;;;;;2.22;1.67;;;;;;;22.14;29.04;93020.96;1837325;77;23299;-78
2021/05/11 14:15:44;;;;;;;2.05;1.77;;;;;;;22.07;28.75;93015.16;1806586;79;22590;-82
2021/05/11 14:18:18;;;;;;;2.83;1.92;;;;;;;21.97;29.33;93013.75;1812968;79;22781;-80
2021/05/11 14:20:51;;;;;;;3.22;1.75;;;;;;;21.91;29.06;93003.95;1813947;79;22695;-81
2021/05/11 14:23:28;;;;;;;2.70;1.85;;;;;;;21.83;29.22;93016.66;1842033;77;22366;-83
2021/05/11 14:26:07;;;;;;;4.20;1.80;;;;;;;21.73;29.67;93009.67;1887894;76;22537;-78
2021/05/11 14:28:41;;;;;;;7.62;2.40;;;;;;;21.63;29.90;93019.33;1887497;75;22654;-77
2021/05/11 14:31:15;;;;;;;2.15;1.60;;;;;;;21.50;29.56;93011.28;1840335;77;22817;-76
2021/05/11 14:34:01;;;;;;;2.70;2.08;;;;;;;21.38;30.02;93008.17;1825793;77;21191;-78
2021/05/11 14:36:41;;;;;;;3.65;1.55;;;;;;;21.40;30.25;93005.09;1815205;78;22687;-79
2021/05/11 14:39:21;;;;;;;2.40;1.80;;;;;;;21.43;30.29;93004.11;1814099;79;22699;-77
2021/05/11 14:41:56;;;;;;;6.47;2.08;;;;;;;21.48;31.09;93006.86;1840067;77;22672;-77
2021/05/11 14:44:29;;;;;;;4.05;1.67;;;;;;;21.52;30.51;92995.75;1813819;79;22696;-77
2021/05/11 14:47:06;;;;;;;2.65;1.80;;;;;;;21.53;30.79;92998.64;1815906;78;22686;-76
2021/05/11 14:49:45;;;;;;;6.83;2.15;;;;;;;21.56;30.47;93007.38;1891234;76;22988;-81
2021/05/11 14:52:19;;;;;;;2.02;1.90;;;;;;;21.49;30.61;93002.22;1886124;76;23349;-78
2021/05/11 14:54:53;;;;;;;6.10;2.85;;;;;;;21.48;30.64;92986.88;1887917;76;22614;-78
2021/05/11 14:57:27;;;;;;;2.70;2.33;;;;;;;21.50;30.50;93000.98;1845306;76;22646;-81
2021/05/11 15:00:04;;;;;;;5.53;2.52;;;;;;;21.44;30.54;92999.34;1840878;77;22628;-78
2021/05/11 15:02:41;;;;;;;6.22;2.20;;;;;;;21.34;30.23;92999.44;1815282;79;22762;-76
2021/05/11 15:05:15;;;;;;;4.37;1.95;;;;;;;21.32;30.92;93001.11;1849833;77;22742;-79
2021/05/11 15:07:49;;;;;;;2.77;2.05;;;;;;;21.29;30.61;92994.55;1839047;77;22695;-83
2021/05/11 15:10:24;;;;;;;4.42;2.35;;;;;;;21.26;30.44;92993.34;1850330;77;22627;-78
2021/05/11 15:12:58;;;;;;;2.80;1.80;;;;;;;21.17;30.37;92987.88;1850602;77;22637;-85
2021/05/11 15:15:34;;;;;;;4.90;2.22;;;;;;;21.05;30.79;92990.42;1889482;76;22546;-80
2021/05/11 15:18:14;;;;;;;4.03;2.20;;;;;;;20.94;30.09;92988.81;1882471;76;22548;-80
2021/05/11 15:20:48;;;;;;;5.28;2.85;;;;;;;20.86;30.30;92990.41;1851718;77;22601;-78
2021/05/11 15:23:21;;;;;;;4.87;2.12;;;;;;;20.83;31.19;92987.20;1808777;79;23255;-78
2021/05/11 15:25:55;;;;;;;4.30;2.10;;;;;;;20.82;30.37;92982.30;1887431;76;23215;-80
2021/05/11 15:28:43;;;;;;;6.33;2.30;;;;;;;20.76;31.58;92986.17;1857817;77;21194;-79
2021/05/11 15:31:19;;;;;;;3.47;2.22;;;;;;;20.81;30.53;92991.83;1793618;77;29189;-78
2021/05/11 15:33:56;;;;;;;5.83;2.27;;;;;;;20.78;30.66;92978.95;1886633;75;22866;-77
2021/05/11 15:36:30;;;;;;;3.25;1.98;;;;;;;20.74;30.55;92984.52;1842283;77;22695;-80
2021/05/11 15:39:07;;;;;;;1.85;1.70;;;;;;;20.65;30.90;92983.97;1884143;76;22536;-80
2021/05/11 15:41:49;;;;;;;2.83;2.10;;;;;;;20.59;30.89;92985.22;1840770;77;22668;-79
2021/05/11 15:44:39;;;;;;;5.67;3.27;;;;;;;20.52;31.11;92977.89;1799044;79;27910;-78
2021/05/11 15:47:12;;;;;;;4.70;2.40;;;;;;;20.47;31.52;92973.76;1841112;77;22748;-80
2021/05/11 15:49:46;;;;;;;4.55;2.10;;;;;;;20.44;31.95;92966.41;1887578;76;22544;-76
2021/05/11 15:52:19;;;;;;;2.98;2.02;;;;;;;20.37;31.51;92975.03;1886681;76;22631;-77
2021/05/11 15:54:53;;;;;;;3.72;2.00;;;;;;;20.24;31.39;92966.98;1814102;78;22651;-79
2021/05/11 15:57:33;;;;;;;3.85;2.05;;;;;;;20.13;31.39;92976.39;1815101;79;22691;-78
2021/05/11 16:00:09;;;;;;;4.35;2.22;;;;;;;20.04;32.04;92977.17;1815819;79;22888;-78
2021/05/11 16:02:44;;;;;;;5.33;2.40;;;;;;;20.01;32.46;92980.09;1886458;75;22284;-75
2021/05/11 16:05:38;;;;;;;4.58;2.17;;;;;;;19.94;31.91;92960.52;1888985;76;23128;-78
2021/05/11 16:08:16;;;;;;;7.65;2.87;;;;;;;19.87;32.62;92971.89;1814376;79;22699;-82
2021/05/11 16:10:52;;;;;;;12.07;2.52;;;;;;;19.80;32.32;92970.22;1815843;79;22655;-77
2021/05/11 16:13:26;;;;;;;5.95;2.00;;;;;;;19.73;32.55;92967.78;1887767;76;22740;-76
2021/05/11 16:16:19;;;;;;;4.78;2.83;;;;;;;19.70;32.52;92969.33;1801745;78;22734;-78
2021/05/11 16:18:56;;;;;;;2.65;2.12;;;;;;;19.66;33.16;92975.00;1812192;79;21190;-77
2021/05/11 16:21:30;;;;;;;3.02;1.77;;;;;;;19.70;33.34;92967.95;1851649;76;23117;-77
2021/05/11 16:24:06;;;;;;;5.25;2.60;;;;;;;19.67;33.00;92969.66;1842184;77;22635;-79
2021/05/11 16:26:43;;;;;;;3.08;1.90;;;;;;;19.68;33.17;92967.66;1887867;76;22641;-77
2021/05/11 16:29:20;;;;;;;4.90;2.33;;;;;;;19.67;33.18;92967.49;1816646;79;22730;-78
2021/05/11 16:31:58;;;;;;;3.77;2.77;;;;;;;19.63;33.40;92965.69;1809765;79;22595;-82
2021/05/11 16:34:32;;;;;;;4.33;2.40;;;;;;;19.63;33.39;92965.69;1888581;76;22599;-82
2021/05/11 16:37:19;;;;;;;9.03;2.33;;;;;;;19.60;33.51;92969.34;1851576;77;22688;-81
2021/05/11 16:39:59;;;;;;;6.05;2.33;;;;;;;19.53;33.11;92962.77;1815131;79;22692;-76
2021/05/11 16:42:35;;;;;;;9.70;3.92;;;;;;;19.43;33.53;92969.52;1815815;79;22675;-81
2021/05/11 16:45:11;;;;;;;6.90;2.92;;;;;;;19.33;34.30;92972.13;1845894;76;22985;-80
2021/05/11 16:47:55;;;;;;;5.62;2.17;;;;;;;19.26;34.03;92973.84;1889497;76;23176;-82
2021/05/11 16:50:34;;;;;;;7.55;3.37;;;;;;;19.17;34.40;92973.22;1825636;77;27782;-83
2021/05/11 16:53:16;;;;;;;4.83;2.45;;;;;;;19.12;34.28;92973.23;1840813;77;22624;-79
2021/05/11 16:55:50;;;;;;;3.65;2.20;;;;;;;19.06;34.50;92976.44;1887048;75;23046;-78
2021/05/11 16:58:24;;;;;;;5.28;2.40;;;;;;;18.95;34.45;92971.24;1815136;79;22814;-82
2021/05/11 17:00:58;;;;;;;2.85;2.08;;;;;;;18.84;34.76;92975.23;1840534;77;22781;-77